Monson, Massachusetts
Current Conditions -  °F | °C
As of 8:58 PM on Saturday 25 Oct 2014 (Local Time) from KCEF Reporting Station
Clear Clear  
Wind Chill: 53°   Ceiling: Unl
Heat Index: 53°   Visibility: 10mi
Dew Point: 43°   Wind: 8mph
Humidity: 69%   Direction: 200°SSW
Pressure: 29.55"   Gusts: NA
Location:  42.1°N, 72.32°W
Report Text: KCEF 260058Z AUTO 20007KT 10SM CLR 12/06 A2955 RMK AO2 SLP013 T01150059
Loading
Personal Weather Stations






























Interactive Weather Map
Tropical Storm Tracking
New forecast layout! Learn more

10-Day Weather Forecast

Advertisements
Track Severe Weather on mobile